createdAt,value
2023-05-07T00:00:27.575Z,99847.31
2023-05-07T00:03:31.394Z,99853.38
2023-05-07T00:06:36.925Z,99843.75
2023-05-07T00:09:41.119Z,99844.78
2023-05-07T00:12:44.997Z,99841.63
2023-05-07T00:15:48.714Z,99838.19
2023-05-07T00:18:52.479Z,99849.38
2023-05-07T00:21:58.148Z,99841.19
2023-05-07T00:25:01.960Z,99836.66
2023-05-07T00:28:05.859Z,99830.44
2023-05-07T00:31:09.785Z,99837.03
2023-05-07T00:34:13.591Z,99830.50
2023-05-07T00:37:19.269Z,99829.63
2023-05-07T00:40:23.120Z,99836.31
2023-05-07T00:43:26.866Z,99845.03
2023-05-07T00:46:31.590Z,99837.75
2023-05-07T00:49:42.331Z,99842.56
2023-05-07T00:52:47.610Z,99844.75
2023-05-07T00:55:51.542Z,99841.75
2023-05-07T00:58:55.622Z,99844.66
2023-05-07T01:01:59.490Z,99848.25
2023-05-07T01:05:04.485Z,99849.53
2023-05-07T01:08:10.273Z,99843.97
2023-05-07T01:11:14.721Z,99855.91
2023-05-07T01:14:18.679Z,99850.09
2023-05-07T01:17:22.412Z,99852.91
2023-05-07T01:20:27.259Z,99845.50
2023-05-07T01:23:36.866Z,99847.28
2023-05-07T01:26:41.060Z,99839.56
2023-05-07T01:29:45.320Z,99832.81
2023-05-07T01:32:54.268Z,99843.28
2023-05-07T01:35:59.740Z,99842.97
2023-05-07T01:39:05.587Z,99834.66
2023-05-07T01:42:09.907Z,99833.91
2023-05-07T01:45:13.970Z,99830.84
2023-05-07T01:48:18.345Z,99831.09
2023-05-07T01:51:23.474Z,99826.59
2023-05-07T01:54:30.428Z,99828.44
2023-05-07T01:57:35.575Z,99832.34
2023-05-07T02:00:39.591Z,99829.22
2023-05-07T02:03:44.280Z,99827.84
2023-05-07T02:06:56.978Z,99832.16
2023-05-07T02:10:02.553Z,99827.63
2023-05-07T02:13:06.387Z,99833.31
2023-05-07T02:16:10.241Z,99834.66
2023-05-07T02:19:15.560Z,99834.81
2023-05-07T02:22:19.231Z,99832.28
2023-05-07T02:25:24.530Z,99837.94
2023-05-07T02:28:28.276Z,99836.09
2023-05-07T02:31:36.771Z,99825.75
2023-05-07T02:34:40.635Z,99811.66
2023-05-07T02:37:44.259Z,99821.72
2023-05-07T02:40:49.617Z,99825.16
2023-05-07T02:43:53.788Z,99817.09
2023-05-07T02:46:57.455Z,99817.38
2023-05-07T02:50:02.062Z,99823.91
2023-05-07T02:53:07.032Z,99808.81
2023-05-07T02:56:12.186Z,99814.91
2023-05-07T02:59:15.922Z,99813.44
2023-05-07T03:02:20.227Z,99805.34
2023-05-07T03:05:24.012Z,99803.09
2023-05-07T03:08:27.704Z,99807.88
2023-05-07T03:11:32.880Z,99809.03
2023-05-07T03:14:36.449Z,99815.28
2023-05-07T03:17:40.357Z,99815.81
2023-05-07T03:20:44.030Z,99818.91
2023-05-07T03:23:47.789Z,99818.75
2023-05-07T03:26:52.886Z,99817.38
2023-05-07T03:29:57.013Z,99819.41
2023-05-07T03:33:01.105Z,99813.19
2023-05-07T03:36:05.991Z,99818.09
2023-05-07T03:39:09.769Z,99819.81
2023-05-07T03:42:18.433Z,99821.81
2023-05-07T03:45:25.164Z,99820.84
2023-05-07T03:48:37.673Z,99821.66
2023-05-07T03:51:42.146Z,99820.91
2023-05-07T03:54:45.828Z,99824.53
2023-05-07T03:57:54.397Z,99827.38
2023-05-07T04:00:58.473Z,99833.75
2023-05-07T04:04:05.687Z,99828.50
2023-05-07T04:07:11.918Z,99830.28
2023-05-07T04:10:19.571Z,99828.81
2023-05-07T04:13:27.635Z,99824.91
2023-05-07T04:16:32.260Z,99832.41
2023-05-07T04:19:36.469Z,99831.75
2023-05-07T04:22:40.274Z,99828.19
2023-05-07T04:25:44.123Z,99835.38
2023-05-07T04:29:01.712Z,99836.66
2023-05-07T04:32:10.326Z,99832.66
2023-05-07T04:35:17.212Z,99835.63
2023-05-07T04:38:21.470Z,99833.94
2023-05-07T04:41:27.985Z,99836.03
2023-05-07T04:44:33.977Z,99836.28
2023-05-07T04:47:37.653Z,99837.06
2023-05-07T04:50:41.489Z,99841.00
2023-05-07T04:53:47.299Z,99842.25
2023-05-07T04:56:51.398Z,99832.16
2023-05-07T04:59:57.071Z,99837.38
2023-05-07T05:03:01.332Z,99844.38
2023-05-07T05:06:06.824Z,99848.72
2023-05-07T05:09:12.382Z,99847.72
2023-05-07T05:12:17.852Z,99843.72
2023-05-07T05:15:23.477Z,99843.03
2023-05-07T05:18:27.561Z,99847.09
2023-05-07T05:21:31.461Z,99854.81
2023-05-07T05:24:41.047Z,99851.41
2023-05-07T05:27:45.484Z,99855.50
2023-05-07T05:30:51.513Z,99856.47
2023-05-07T05:33:56.242Z,99854.47
2023-05-07T05:37:01.779Z,99853.66
2023-05-07T05:40:06.664Z,99863.09
2023-05-07T05:43:10.775Z,99866.53
2023-05-07T05:46:17.886Z,99868.53
2023-05-07T05:49:21.864Z,99873.13
2023-05-07T05:52:26.415Z,99866.00
2023-05-07T05:55:33.611Z,99869.28
2023-05-07T05:58:37.652Z,99873.13
2023-05-07T06:01:45.900Z,99870.72
2023-05-07T06:04:49.830Z,99868.66
2023-05-07T06:07:56.694Z,99875.38
2023-05-07T06:11:01.819Z,99878.66
2023-05-07T06:14:09.132Z,99885.72
2023-05-07T06:17:14.824Z,99880.91
2023-05-07T06:20:19.162Z,99879.06
2023-05-07T06:23:23.157Z,99866.00
2023-05-07T06:26:27.069Z,99872.28
2023-05-07T06:29:32.792Z,99874.47
2023-05-07T06:32:39.652Z,99867.34
2023-05-07T06:35:43.814Z,99872.72
2023-05-07T06:38:47.763Z,99863.28
2023-05-07T06:41:52.844Z,99869.94
2023-05-07T06:45:04.544Z,99875.19
2023-05-07T06:48:10.164Z,99877.78
2023-05-07T06:51:23.830Z,99869.28
2023-05-07T06:54:28.324Z,99876.19
2023-05-07T06:57:32.503Z,99875.75
2023-05-07T07:00:36.505Z,99881.59
2023-05-07T07:03:41.871Z,99873.41
2023-05-07T07:06:45.829Z,99871.97
2023-05-07T07:09:52.837Z,99874.84
2023-05-07T07:12:57.294Z,99876.69
2023-05-07T07:16:02.801Z,99872.38
2023-05-07T07:19:08.418Z,99869.63
2023-05-07T07:22:13.074Z,99875.28
2023-05-07T07:25:16.989Z,99872.78
2023-05-07T07:28:23.428Z,99872.31
2023-05-07T07:31:27.537Z,99877.44
2023-05-07T07:34:32.920Z,99883.66
2023-05-07T07:37:38.573Z,99882.47
2023-05-07T07:40:42.607Z,99883.09
2023-05-07T07:43:49.809Z,99878.41
2023-05-07T07:46:56.830Z,99885.69
2023-05-07T07:50:04.193Z,99878.44
2023-05-07T07:53:08.296Z,99880.19
2023-05-07T07:56:12.720Z,99884.72
2023-05-07T07:59:20.058Z,99889.34
2023-05-07T08:02:26.652Z,99887.69
2023-05-07T08:05:32.325Z,99891.22
2023-05-07T08:08:37.108Z,99888.00
2023-05-07T08:11:41.329Z,99881.38
2023-05-07T08:14:45.331Z,99877.72
2023-05-07T08:17:49.193Z,99881.84
2023-05-07T08:20:55.054Z,99874.66
2023-05-07T08:24:02.451Z,99860.50
2023-05-07T08:27:06.987Z,99861.31
2023-05-07T08:30:12.897Z,99863.31
2023-05-07T08:33:17.661Z,99861.66
2023-05-07T08:36:23.037Z,99858.16
2023-05-07T08:39:27.082Z,99857.38
2023-05-07T08:42:33.860Z,99859.28
2023-05-07T08:45:38.033Z,99859.00
2023-05-07T08:48:42.335Z,99855.31
2023-05-07T08:51:53.897Z,99854.66
2023-05-07T08:54:58.957Z,99849.50
2023-05-07T08:58:03.750Z,99853.06
2023-05-07T09:01:11.987Z,99845.66
2023-05-07T09:04:16.102Z,99843.09
2023-05-07T09:07:24.035Z,99843.09
2023-05-07T09:10:28.745Z,99843.72
2023-05-07T09:13:32.769Z,99838.06
2023-05-07T09:16:38.998Z,99831.25
2023-05-07T09:19:42.946Z,99835.06
2023-05-07T09:22:48.345Z,99836.94
2023-05-07T09:26:03.176Z,99831.16
2023-05-07T09:29:10.548Z,99826.81
2023-05-07T09:32:14.746Z,99825.91
2023-05-07T09:35:19.198Z,99816.81
2023-05-07T09:38:30.144Z,99819.75
2023-05-07T09:41:45.584Z,99816.03
2023-05-07T09:45:02.438Z,99817.06
2023-05-07T09:48:14.598Z,99812.91
2023-05-07T09:51:24.744Z,99806.41
2023-05-07T09:54:31.881Z,99812.31
2023-05-07T09:57:37.346Z,99802.25
2023-05-07T10:00:45.674Z,99792.56
2023-05-07T10:03:54.247Z,99796.25
2023-05-07T10:06:59.612Z,99805.19
2023-05-07T10:10:07.334Z,99799.09
2023-05-07T10:13:16.083Z,99794.59
2023-05-07T10:16:25.338Z,99781.19
2023-05-07T10:19:30.712Z,99782.06
2023-05-07T10:22:41.277Z,99780.31
2023-05-07T10:25:46.807Z,99777.56
2023-05-07T10:29:03.854Z,99770.78
2023-05-07T10:32:30.039Z,99762.81
2023-05-07T10:35:38.680Z,99756.34
2023-05-07T10:38:43.231Z,99754.63
2023-05-07T10:41:50.477Z,99757.66
2023-05-07T10:44:55.048Z,99753.94
2023-05-07T10:51:28.292Z,99740.81
2023-05-07T10:54:40.211Z,99737.25
2023-05-07T10:57:49.724Z,99738.38
2023-05-07T11:01:00.505Z,99733.59
2023-05-07T11:04:16.584Z,99729.56
2023-05-07T11:07:35.422Z,99734.41
2023-05-07T11:10:55.328Z,99733.78
2023-05-07T11:14:45.967Z,99721.28
2023-05-07T11:18:10.602Z,99722.34
2023-05-07T11:21:35.261Z,99721.28
2023-05-07T11:25:02.764Z,99721.47
2023-05-07T11:28:11.636Z,99717.59
2023-05-07T11:31:27.384Z,99718.06
2023-05-07T11:34:32.761Z,99713.69
2023-05-07T11:37:37.290Z,99709.66
2023-05-07T11:40:52.276Z,99709.81
2023-05-07T11:44:01.064Z,99717.69
2023-05-07T11:47:06.428Z,99705.94
2023-05-07T11:50:12.230Z,99708.09
2023-05-07T11:53:15.971Z,99713.81
2023-05-07T11:56:21.155Z,99703.91
2023-05-07T11:59:24.910Z,99701.09
2023-05-07T12:02:31.017Z,99699.31
2023-05-07T12:05:34.904Z,99698.44
2023-05-07T12:08:40.036Z,99692.63
2023-05-07T12:11:48.716Z,99696.47
2023-05-07T12:14:52.481Z,99686.91
2023-05-07T12:17:57.977Z,99685.69
2023-05-07T12:21:02.671Z,99693.94
2023-05-07T12:24:07.151Z,99694.66
2023-05-07T12:27:12.136Z,99687.78
2023-05-07T12:30:16.216Z,99675.56
2023-05-07T12:33:26.092Z,99673.31
2023-05-07T12:36:39.696Z,99662.31
2023-05-07T12:39:47.511Z,99661.44
2023-05-07T12:42:57.695Z,99654.03
2023-05-07T12:46:05.803Z,99658.00
2023-05-07T12:49:11.409Z,99652.66
2023-05-07T12:52:15.980Z,99661.44
2023-05-07T12:55:20.183Z,99642.88
2023-05-07T12:58:28.295Z,99646.19
2023-05-07T13:01:32.981Z,99641.38
2023-05-07T13:04:38.534Z,99642.25
2023-05-07T13:07:43.004Z,99631.56
2023-05-07T13:10:46.685Z,99643.03
2023-05-07T13:13:50.538Z,99633.44
2023-05-07T13:16:54.255Z,99633.38
2023-05-07T13:19:59.342Z,99632.81
2023-05-07T13:23:05.515Z,99626.38
2023-05-07T13:26:22.480Z,99625.91
2023-05-07T13:29:31.582Z,99620.25
2023-05-07T13:32:35.462Z,99630.91
2023-05-07T13:35:41.085Z,99621.47
2023-05-07T13:38:44.973Z,99624.44
2023-05-07T13:41:48.709Z,99622.44
2023-05-07T13:44:52.591Z,99614.63
2023-05-07T13:47:57.809Z,99618.28
2023-05-07T13:51:03.017Z,99608.69
2023-05-07T13:54:06.952Z,99611.72
2023-05-07T13:57:10.817Z,99609.13
2023-05-07T14:00:15.723Z,99616.50
2023-05-07T14:03:21.024Z,99606.53
2023-05-07T14:06:26.400Z,99611.41
2023-05-07T14:09:30.210Z,99608.16
2023-05-07T14:12:34.436Z,99606.03
2023-05-07T14:15:38.726Z,99608.56
2023-05-07T14:18:42.507Z,99604.75
2023-05-07T14:21:47.718Z,99610.66
2023-05-07T14:25:05.403Z,99610.72
2023-05-07T14:28:16.043Z,99609.94
2023-05-07T14:31:19.851Z,99599.44
2023-05-07T14:34:23.777Z,99598.88
2023-05-07T14:37:29.505Z,99606.03
2023-05-07T14:40:33.458Z,99603.53
2023-05-07T14:43:37.205Z,99594.06
2023-05-07T14:46:41.128Z,99603.19
2023-05-07T14:49:44.807Z,99605.56
2023-05-07T14:52:50.068Z,99601.34
2023-05-07T14:55:53.926Z,99608.25
2023-05-07T14:58:57.746Z,99597.69
2023-05-07T15:02:03.783Z,99604.34
2023-05-07T15:05:10.204Z,99600.63
2023-05-07T15:08:15.616Z,99606.69
2023-05-07T15:11:19.476Z,99597.31
2023-05-07T15:14:23.644Z,99605.47
2023-05-07T15:17:27.610Z,99604.34
2023-05-07T15:20:31.612Z,99605.50
2023-05-07T15:23:36.953Z,99599.34
2023-05-07T15:26:40.472Z,99588.53
2023-05-07T15:29:44.339Z,99604.38
2023-05-07T15:32:48.715Z,99601.75
2023-05-07T15:35:52.563Z,99596.72
2023-05-07T15:38:57.771Z,99594.22
2023-05-07T15:42:02.511Z,99599.06
2023-05-07T15:45:07.285Z,99603.50
2023-05-07T15:48:12.019Z,99587.66
2023-05-07T15:51:15.881Z,99593.47
2023-05-07T15:54:21.432Z,99592.09
2023-05-07T15:57:25.556Z,99596.38
2023-05-07T16:00:29.689Z,99589.56
2023-05-07T16:03:34.407Z,99596.13
2023-05-07T16:06:38.283Z,99581.41
2023-05-07T16:09:43.381Z,99589.25
2023-05-07T16:12:47.183Z,99602.34
2023-05-07T16:15:50.995Z,99600.97
2023-05-07T16:18:54.804Z,99601.88
2023-05-07T16:21:58.879Z,99586.44
2023-05-07T16:25:05.522Z,99584.94
2023-05-07T16:28:09.328Z,99589.44
2023-05-07T16:31:13.231Z,99593.44
2023-05-07T16:34:17.009Z,99585.13
2023-05-07T16:37:21.722Z,99587.47
2023-05-07T16:40:27.349Z,99586.25
2023-05-07T16:43:31.207Z,99593.41
2023-05-07T16:46:35.033Z,99594.69
2023-05-07T16:49:38.891Z,99590.50
2023-05-07T16:52:42.667Z,99601.84
2023-05-07T16:55:47.981Z,99595.59
2023-05-07T16:58:51.813Z,99593.91
2023-05-07T17:01:56.939Z,99595.75
2023-05-07T17:05:01.570Z,99596.63
2023-05-07T17:08:05.699Z,99595.00
2023-05-07T17:11:10.977Z,99590.00
2023-05-07T17:14:14.771Z,99597.88
2023-05-07T17:17:18.761Z,99598.16
2023-05-07T17:20:23.918Z,99603.09
2023-05-07T17:23:27.821Z,99609.59
2023-05-07T17:26:35.504Z,99605.34
2023-05-07T17:29:39.303Z,99606.06
2023-05-07T17:32:43.010Z,99598.25
2023-05-07T17:35:46.823Z,99596.47
2023-05-07T17:38:50.592Z,99612.91
2023-05-07T17:41:55.860Z,99617.09
2023-05-07T17:44:59.721Z,99615.44
2023-05-07T17:48:03.907Z,99621.88
2023-05-07T17:51:07.829Z,99628.97
2023-05-07T17:54:11.854Z,99630.16
2023-05-07T17:57:17.093Z,99627.63
2023-05-07T18:00:21.178Z,99626.31
2023-05-07T18:03:25.794Z,99634.78
2023-05-07T18:06:29.632Z,99631.00
2023-05-07T18:09:33.443Z,99633.00
2023-05-07T18:12:38.687Z,99639.88
2023-05-07T18:15:42.569Z,99641.44
2023-05-07T18:18:47.190Z,99649.72
2023-05-07T18:21:51.185Z,99648.53
2023-05-07T18:24:56.188Z,99646.75
2023-05-07T18:28:01.430Z,99651.13
2023-05-07T18:31:06.311Z,99655.78
2023-05-07T18:34:10.572Z,99652.69
2023-05-07T18:37:14.298Z,99666.81
2023-05-07T18:40:18.416Z,99665.38
2023-05-07T18:43:23.600Z,99674.97
2023-05-07T18:46:29.521Z,99677.06
2023-05-07T18:49:33.350Z,99688.25
2023-05-07T18:52:37.445Z,99680.53
2023-05-07T18:55:41.581Z,99685.59
2023-05-07T18:58:46.769Z,99686.84
2023-05-07T19:01:50.684Z,99701.34
2023-05-07T19:04:54.567Z,99699.09
2023-05-07T19:07:58.449Z,99702.34
2023-05-07T19:11:02.313Z,99702.56
2023-05-07T19:14:07.619Z,99705.22
2023-05-07T19:17:13.348Z,99702.56
2023-05-07T19:20:17.125Z,99701.56
2023-05-07T19:23:21.235Z,99705.41
2023-05-07T19:26:25.241Z,99714.41
2023-05-07T19:29:30.452Z,99716.84
2023-05-07T19:32:34.292Z,99717.44
2023-05-07T19:35:38.404Z,99715.00
2023-05-07T19:38:42.132Z,99718.25
2023-05-07T19:41:46.186Z,99723.56
2023-05-07T19:44:51.517Z,99719.44
2023-05-07T19:47:55.229Z,99723.91
2023-05-07T19:51:00.168Z,99719.81
2023-05-07T19:54:04.180Z,99722.69
2023-05-07T19:57:08.022Z,99722.63
2023-05-07T20:00:15.016Z,99711.97
2023-05-07T20:03:19.516Z,99713.97
2023-05-07T20:06:24.274Z,99725.72
2023-05-07T20:09:28.024Z,99716.56
2023-05-07T20:12:31.784Z,99714.16
2023-05-07T20:15:38.100Z,99717.56
2023-05-07T20:18:42.085Z,99725.44
2023-05-07T20:21:46.187Z,99741.88
2023-05-07T20:24:49.934Z,99741.59
2023-05-07T20:27:53.956Z,99747.84
2023-05-07T20:30:59.188Z,99748.59
2023-05-07T20:34:03.271Z,99741.56
2023-05-07T20:37:07.030Z,99748.03
2023-05-07T20:40:11.878Z,99750.94
2023-05-07T20:43:15.903Z,99760.22
2023-05-07T20:46:23.394Z,99760.16
2023-05-07T20:49:27.442Z,99768.56
2023-05-07T20:52:31.229Z,99769.41
2023-05-07T20:55:35.058Z,99768.69
2023-05-07T20:58:38.814Z,99775.53
2023-05-07T21:01:44.160Z,99768.97
2023-05-07T21:04:48.040Z,99782.34
2023-05-07T21:07:51.847Z,99784.44
2023-05-07T21:10:55.998Z,99785.22
2023-05-07T21:13:59.878Z,99791.69
2023-05-07T21:17:07.352Z,99796.03
2023-05-07T21:20:11.877Z,99792.66
2023-05-07T21:23:15.877Z,99802.94
2023-05-07T21:26:20.526Z,99801.50
2023-05-07T21:29:24.953Z,99805.34
2023-05-07T21:32:30.196Z,99812.63
2023-05-07T21:35:34.026Z,99814.00
2023-05-07T21:38:38.778Z,99823.91
2023-05-07T21:41:42.593Z,99827.94
2023-05-07T21:44:46.525Z,99829.31
2023-05-07T21:47:51.787Z,99833.66
2023-05-07T21:51:02.345Z,99834.13
2023-05-07T21:54:07.065Z,99840.03
2023-05-07T21:57:11.215Z,99845.03
2023-05-07T22:00:16.592Z,99839.03
2023-05-07T22:03:21.986Z,99844.00
2023-05-07T22:06:26.563Z,99841.88
2023-05-07T22:09:30.356Z,99851.78
2023-05-07T22:12:34.161Z,99853.84
2023-05-07T22:15:49.138Z,99845.81
2023-05-07T22:19:01.694Z,99846.50
2023-05-07T22:22:05.579Z,99847.22
2023-05-07T22:25:10.844Z,99837.25
2023-05-07T22:28:14.573Z,99847.75
2023-05-07T22:31:18.401Z,99847.69
2023-05-07T22:34:23.754Z,99843.94
2023-05-07T22:37:27.726Z,99835.56
2023-05-07T22:40:31.492Z,99840.66
2023-05-07T22:43:35.493Z,99843.84
2023-05-07T22:46:39.299Z,99854.28
2023-05-07T22:49:44.381Z,99849.44
2023-05-07T22:52:48.011Z,99849.91
2023-05-07T22:55:51.859Z,99852.16
2023-05-07T22:58:55.577Z,99852.00
2023-05-07T23:01:59.674Z,99846.13
2023-05-07T23:05:05.049Z,99839.03
2023-05-07T23:08:08.914Z,99841.56
2023-05-07T23:11:13.075Z,99838.47
2023-05-07T23:14:16.850Z,99847.41
2023-05-07T23:17:20.702Z,99848.94
2023-05-07T23:20:25.903Z,99839.16
2023-05-07T23:23:33.926Z,99844.94
2023-05-07T23:26:37.760Z,99839.72
2023-05-07T23:29:41.477Z,99839.94
2023-05-07T23:32:45.151Z,99832.81
2023-05-07T23:35:50.292Z,99828.88
2023-05-07T23:38:53.942Z,99826.53
2023-05-07T23:41:57.596Z,99824.16
2023-05-07T23:45:01.452Z,99826.34
2023-05-07T23:48:05.320Z,99814.81
2023-05-07T23:51:10.616Z,99817.88
2023-05-07T23:54:14.303Z,99813.06
2023-05-07T23:57:17.979Z,99810.91
